sensor_id;sensor_type;location;lat;lon;timestamp;pressure;altitude;pressure_sealevel;temperature;humidity
69796;BME280;57073;45.650;9.612;2023-02-19T00:07:12;100080.06;;;10.60;62.95
69796;BME280;57073;45.650;9.612;2023-02-19T00:17:13;100072.97;;;10.45;63.90
69796;BME280;57073;45.650;9.612;2023-02-19T00:27:13;100057.34;;;10.55;63.56
69796;BME280;57073;45.650;9.612;2023-02-19T00:37:14;100045.56;;;10.50;63.37
69796;BME280;57073;45.650;9.612;2023-02-19T00:47:14;100048.25;;;10.57;62.99
69796;BME280;57073;45.650;9.612;2023-02-19T00:57:14;100055.13;;;10.31;64.00
69796;BME280;57073;45.650;9.612;2023-02-19T01:07:15;100044.28;;;10.17;64.04
69796;BME280;57073;45.650;9.612;2023-02-19T01:17:15;100035.41;;;10.17;63.50
69796;BME280;57073;45.650;9.612;2023-02-19T01:27:15;100030.22;;;9.87;62.99
69796;BME280;57073;45.650;9.612;2023-02-19T01:37:16;100021.13;;;9.82;62.55
69796;BME280;57073;45.650;9.612;2023-02-19T01:47:17;100012.97;;;9.68;62.90
69796;BME280;57073;45.650;9.612;2023-02-19T01:57:22;100002.03;;;9.70;62.75
69796;BME280;57073;45.650;9.612;2023-02-19T02:07:25;100000.50;;;9.54;62.92
69796;BME280;57073;45.650;9.612;2023-02-19T02:18:27;99995.44;;;9.44;63.22
69796;BME280;57073;45.650;9.612;2023-02-19T02:38:50;99970.16;;;9.25;63.71
69796;BME280;57073;45.650;9.612;2023-02-19T02:48:57;99962.09;;;9.04;63.59
69796;BME280;57073;45.650;9.612;2023-02-19T02:59:03;99958.72;;;8.95;63.07
69796;BME280;57073;45.650;9.612;2023-02-19T03:09:08;99958.28;;;8.91;63.67
69796;BME280;57073;45.650;9.612;2023-02-19T03:19:13;99957.59;;;8.68;64.48
69796;BME280;57073;45.650;9.612;2023-02-19T03:29:22;99947.03;;;8.81;63.74
69796;BME280;57073;45.650;9.612;2023-02-19T03:39:25;99936.09;;;8.76;63.29
69796;BME280;57073;45.650;9.612;2023-02-19T03:59:55;99954.78;;;8.54;64.41
69796;BME280;57073;45.650;9.612;2023-02-19T04:09:58;99963.44;;;8.56;64.47
69796;BME280;57073;45.650;9.612;2023-02-19T04:20:02;99968.53;;;8.51;64.56
69796;BME280;57073;45.650;9.612;2023-02-19T04:30:09;99964.56;;;8.32;64.45
69796;BME280;57073;45.650;9.612;2023-02-19T04:40:10;99957.00;;;8.21;65.25
69796;BME280;57073;45.650;9.612;2023-02-19T04:50:11;99956.09;;;8.29;65.55
69796;BME280;57073;45.650;9.612;2023-02-19T05:00:12;99959.31;;;8.24;65.50
69796;BME280;57073;45.650;9.612;2023-02-19T05:10:12;99954.97;;;8.08;65.21
69796;BME280;57073;45.650;9.612;2023-02-19T05:20:12;99950.53;;;7.85;66.51
69796;BME280;57073;45.650;9.612;2023-02-19T05:30:13;99957.75;;;7.85;67.55
69796;BME280;57073;45.650;9.612;2023-02-19T05:40:13;99963.63;;;7.95;66.66
69796;BME280;57073;45.650;9.612;2023-02-19T05:50:14;99943.34;;;8.01;67.09
69796;BME280;57073;45.650;9.612;2023-02-19T06:00:16;99935.78;;;7.90;68.15
69796;BME280;57073;45.650;9.612;2023-02-19T06:10:18;99926.03;;;7.67;68.07
69796;BME280;57073;45.650;9.612;2023-02-19T06:20:18;99944.16;;;7.72;67.09
69796;BME280;57073;45.650;9.612;2023-02-19T06:30:18;99933.22;;;7.81;66.84
69796;BME280;57073;45.650;9.612;2023-02-19T06:40:19;99934.63;;;8.07;66.54
69796;BME280;57073;45.650;9.612;2023-02-19T06:50:19;99930.16;;;7.99;66.47
69796;BME280;57073;45.650;9.612;2023-02-19T07:00:20;99942.25;;;8.25;65.61
69796;BME280;57073;45.650;9.612;2023-02-19T07:10:20;99939.09;;;8.36;65.91
69796;BME280;57073;45.650;9.612;2023-02-19T07:20:20;99935.16;;;8.47;66.19
69796;BME280;57073;45.650;9.612;2023-02-19T07:30:21;99913.25;;;8.58;66.07
69796;BME280;57073;45.650;9.612;2023-02-19T07:40:21;99928.06;;;8.76;64.74
69796;BME280;57073;45.650;9.612;2023-02-19T07:50:21;99924.09;;;8.93;65.31
69796;BME280;57073;45.650;9.612;2023-02-19T08:00:22;99930.69;;;9.12;64.25
69796;BME280;57073;45.650;9.612;2023-02-19T08:10:23;99918.09;;;9.34;63.13
69796;BME280;57073;45.650;9.612;2023-02-19T08:20:43;99916.44;;;9.33;63.21
69796;BME280;57073;45.650;9.612;2023-02-19T08:30:44;99901.50;;;9.46;63.49
69796;BME280;57073;45.650;9.612;2023-02-19T08:40:45;99910.16;;;9.48;62.61
69796;BME280;57073;45.650;9.612;2023-02-19T08:50:52;99908.16;;;9.85;62.60
69796;BME280;57073;45.650;9.612;2023-02-19T09:00:53;99899.16;;;9.99;62.55
69796;BME280;57073;45.650;9.612;2023-02-19T09:11:00;99896.88;;;10.38;62.36
69796;BME280;57073;45.650;9.612;2023-02-19T09:21:03;99920.72;;;10.74;61.30
69796;BME280;57073;45.650;9.612;2023-02-19T09:31:06;99901.34;;;11.05;61.56
69796;BME280;57073;45.650;9.612;2023-02-19T09:41:12;99906.34;;;11.28;60.43
69796;BME280;57073;45.650;9.612;2023-02-19T09:51:15;99887.72;;;11.54;60.36
69796;BME280;57073;45.650;9.612;2023-02-19T10:01:17;99874.00;;;11.82;60.37
69796;BME280;57073;45.650;9.612;2023-02-19T10:11:18;99874.56;;;12.11;61.28
69796;BME280;57073;45.650;9.612;2023-02-19T10:21:26;99872.38;;;12.39;60.71
69796;BME280;57073;45.650;9.612;2023-02-19T10:31:27;99874.75;;;12.61;60.08
69796;BME280;57073;45.650;9.612;2023-02-19T10:41:27;99859.91;;;12.83;60.31
69796;BME280;57073;45.650;9.612;2023-02-19T10:51:34;99855.22;;;12.97;60.64
69796;BME280;57073;45.650;9.612;2023-02-19T11:01:38;99853.44;;;13.16;59.89
69796;BME280;57073;45.650;9.612;2023-02-19T11:11:52;99823.84;;;13.35;59.72
69796;BME280;57073;45.650;9.612;2023-02-19T11:21:54;99805.75;;;13.60;59.09
69796;BME280;57073;45.650;9.612;2023-02-19T11:31:55;99791.91;;;14.06;58.38
69796;BME280;57073;45.650;9.612;2023-02-19T12:44:18;99721.41;;;14.56;55.48
69796;BME280;57073;45.650;9.612;2023-02-19T12:54:43;99677.63;;;14.54;55.59
69796;BME280;57073;45.650;9.612;2023-02-19T13:04:48;99660.81;;;14.52;55.01
69796;BME280;57073;45.650;9.612;2023-02-19T13:15:00;99655.31;;;14.47;54.88
69796;BME280;57073;45.650;9.612;2023-02-19T13:25:03;99655.03;;;14.48;54.77
69796;BME280;57073;45.650;9.612;2023-02-19T13:35:20;99637.50;;;14.57;55.70
69796;BME280;57073;45.650;9.612;2023-02-19T13:45:44;99628.44;;;14.64;55.02
69796;BME280;57073;45.650;9.612;2023-02-19T13:55:48;99623.84;;;14.64;55.16
69796;BME280;57073;45.650;9.612;2023-02-19T14:06:01;99611.47;;;14.45;54.54
69796;BME280;57073;45.650;9.612;2023-02-19T14:16:32;99599.88;;;14.56;54.62
69796;BME280;57073;45.650;9.612;2023-02-19T14:26:47;99605.09;;;14.57;53.55
69796;BME280;57073;45.650;9.612;2023-02-19T14:46:55;99613.28;;;14.63;53.80
69796;BME280;57073;45.650;9.612;2023-02-19T14:56:57;99604.94;;;14.64;53.71
69796;BME280;57073;45.650;9.612;2023-02-19T15:07:00;99603.78;;;14.60;53.57
69796;BME280;57073;45.650;9.612;2023-02-19T15:17:04;99599.69;;;14.57;52.99
69796;BME280;57073;45.650;9.612;2023-02-19T15:27:05;99611.66;;;14.62;53.39
69796;BME280;57073;45.650;9.612;2023-02-19T15:37:07;99616.69;;;14.58;53.42
69796;BME280;57073;45.650;9.612;2023-02-19T15:58:17;99601.88;;;14.49;53.78
69796;BME280;57073;45.650;9.612;2023-02-19T16:08:19;99607.28;;;14.49;53.93
69796;BME280;57073;45.650;9.612;2023-02-19T16:18:20;99601.38;;;14.28;53.68
69796;BME280;57073;45.650;9.612;2023-02-19T16:28:24;99622.88;;;14.35;54.00
69796;BME280;57073;45.650;9.612;2023-02-19T16:38:25;99624.06;;;14.27;53.63
69796;BME280;57073;45.650;9.612;2023-02-19T16:48:25;99630.22;;;14.04;54.73
69796;BME280;57073;45.650;9.612;2023-02-19T16:58:26;99637.97;;;14.00;54.63
69796;BME280;57073;45.650;9.612;2023-02-19T17:08:37;99666.59;;;14.02;54.18
69796;BME280;57073;45.650;9.612;2023-02-19T17:18:38;99699.72;;;14.09;54.38
69796;BME280;57073;45.650;9.612;2023-02-19T17:28:38;99703.06;;;13.92;54.21
69796;BME280;57073;45.650;9.612;2023-02-19T17:38:38;99719.25;;;13.74;54.60
69796;BME280;57073;45.650;9.612;2023-02-19T17:48:39;99732.72;;;13.62;55.44
69796;BME280;57073;45.650;9.612;2023-02-19T17:58:39;99744.00;;;13.52;55.72
69796;BME280;57073;45.650;9.612;2023-02-19T18:08:48;99757.50;;;13.52;55.03
69796;BME280;57073;45.650;9.612;2023-02-19T18:18:49;99760.78;;;13.36;55.49
69796;BME280;57073;45.650;9.612;2023-02-19T18:28:49;99782.13;;;13.12;56.70
69796;BME280;57073;45.650;9.612;2023-02-19T18:38:50;99805.69;;;13.23;57.05
69796;BME280;57073;45.650;9.612;2023-02-19T18:48:50;99822.66;;;13.24;55.79
69796;BME280;57073;45.650;9.612;2023-02-19T18:58:50;99832.56;;;13.05;56.51
69796;BME280;57073;45.650;9.612;2023-02-19T19:08:51;99854.84;;;12.94;56.45
69796;BME280;57073;45.650;9.612;2023-02-19T19:18:51;99857.72;;;12.67;57.12
69796;BME280;57073;45.650;9.612;2023-02-19T19:28:52;99878.75;;;12.45;57.94
69796;BME280;57073;45.650;9.612;2023-02-19T19:38:52;99908.16;;;12.46;58.18
69796;BME280;57073;45.650;9.612;2023-02-19T19:48:53;99931.84;;;12.31;58.82
69796;BME280;57073;45.650;9.612;2023-02-19T19:58:53;99946.63;;;11.68;62.33
69796;BME280;57073;45.650;9.612;2023-02-19T20:08:54;99951.81;;;11.50;62.76
69796;BME280;57073;45.650;9.612;2023-02-19T20:18:54;99963.78;;;11.27;64.41
69796;BME280;57073;45.650;9.612;2023-02-19T20:28:55;99985.69;;;11.18;64.50
69796;BME280;57073;45.650;9.612;2023-02-19T20:38:55;100003.41;;;10.99;65.54
69796;BME280;57073;45.650;9.612;2023-02-19T20:48:56;100014.78;;;11.01;66.32
69796;BME280;57073;45.650;9.612;2023-02-19T20:58:56;100011.28;;;11.07;66.26
69796;BME280;57073;45.650;9.612;2023-02-19T21:08:56;100027.59;;;11.05;66.84
69796;BME280;57073;45.650;9.612;2023-02-19T21:18:58;100022.03;;;11.07;66.97
69796;BME280;57073;45.650;9.612;2023-02-19T21:28:59;100010.06;;;11.09;66.85
69796;BME280;57073;45.650;9.612;2023-02-19T21:38:59;100021.00;;;11.08;66.74
69796;BME280;57073;45.650;9.612;2023-02-19T21:49:00;100016.66;;;11.07;67.37
69796;BME280;57073;45.650;9.612;2023-02-19T21:59:00;100017.47;;;11.01;67.30
69796;BME280;57073;45.650;9.612;2023-02-19T22:09:02;100023.63;;;10.94;67.46
69796;BME280;57073;45.650;9.612;2023-02-19T22:19:02;100041.66;;;11.07;67.24
69796;BME280;57073;45.650;9.612;2023-02-19T22:29:03;100047.59;;;10.96;67.26
69796;BME280;57073;45.650;9.612;2023-02-19T22:39:09;100061.22;;;10.94;66.91
69796;BME280;57073;45.650;9.612;2023-02-19T22:49:14;100075.72;;;11.00;66.66
69796;BME280;57073;45.650;9.612;2023-02-19T22:59:15;100075.91;;;10.92;67.22
69796;BME280;57073;45.650;9.612;2023-02-19T23:09:25;100090.19;;;10.99;67.95
69796;BME280;57073;45.650;9.612;2023-02-19T23:19:26;100084.00;;;11.05;67.51
69796;BME280;57073;45.650;9.612;2023-02-19T23:29:27;100094.34;;;11.08;66.53
69796;BME280;57073;45.650;9.612;2023-02-19T23:39:29;100094.16;;;11.10;67.13
69796;BME280;57073;45.650;9.612;2023-02-19T23:49:30;100090.22;;;11.12;66.44
69796;BME280;57073;45.650;9.612;2023-02-19T23:59:30;100091.28;;;11.11;66.16
